W5WJB Weather Reports


Display with metric or nautical units.
time (UTC)temp
F
wind
direction
speed
MPH
gust
MPH
rain 1hr
in
rain 24hr
in
rain mn
in
humidity
%
barometer
mb
20210922161557 78 323 7.0 14.0 0.00 0.00 0.00 53 1024.1
20210922161013 77 5 4.0 15.0 0.00 0.00 0.00 58 1024.1
20210922160508 77 350 8.0 18.0 0.00 0.00 0.00 54 1024.1
20210922160021 77 291 7.0 18.0 0.00 0.00 0.00 56 1024.1
20210922155522 77 13 8.0 15.0 0.00 0.00 0.00 58 1024.1
20210922155012 76 345 8.0 16.0 0.00 0.00 0.00 61 1024.1
20210922154512 76 355 7.0 16.0 0.00 0.00 0.00 60 1024.1
20210922154006 76 346 6.0 16.0 0.00 0.00 0.00 62 1024.1
20210922153506 76 350 7.0 14.0 0.00 0.00 0.00 61 1024.1
20210922153007 76 24 7.0 14.0 0.00 0.00 0.00 61 1024.2
20210922152505 75 348 7.0 18.0 0.00 0.00 0.00 60 1024.2
20210922152004 75 26 7.0 18.0 0.00 0.00 0.00 62 1024.2
20210922151511 75 325 8.0 18.0 0.00 0.00 0.00 63 1024.2
20210922151004 75 342 7.0 15.0 0.00 0.00 0.00 64 1024.1
20210922150505 75 355 7.0 13.0 0.00 0.00 0.00 65 1024.0
20210922150003 75 11 8.0 15.0 0.00 0.00 0.00 65 1023.9
20210922145510 75 360 6.0 15.0 0.00 0.00 0.00 66 1023.9
20210922145007 75 15 5.0 15.0 0.00 0.00 0.00 68 1024.0
20210922144503 74 316 5.0 15.0 0.00 0.00 0.00 69 1023.9
20210922144003 74 5 6.0 15.0 0.00 0.00 0.00 68 1023.9
20210922143602 74 346 7.0 16.0 0.00 0.00 0.00 69 1023.9
20210922143132 74 47 6.0 16.0 0.00 0.00 0.00 69 1023.9
20210922142609 74 350 7.0 13.0 0.00 0.00 0.00 69 1023.9
20210922142100 73 319 6.0 13.0 0.00 0.00 0.00 70 1023.8
20210922141845 73 318 6.0 15.0 0.00 0.00 0.00 70 1023.8
20210922141058 73 348 5.0 17.0 0.00 0.00 0.00 70 1023.8
20210922140558 73 321 7.0 17.0 0.00 0.00 0.00 71 1023.8
20210922140124 73 314 9.0 18.0 0.00 0.00 0.00 70 1023.7
20210922135556 72 311 9.0 18.0 0.00 0.01 0.00 70 1023.7
20210922135055 72 308 7.0 13.0 0.00 0.01 0.00 72 1023.5
20210922134614 72 17 5.0 13.0 0.00 0.01 0.00 74 1023.4
20210922134053 72 355 6.0 12.0 0.00 0.01 0.00 74 1023.3
20210922133610 72 5 6.0 11.0 0.00 0.01 0.00 74 1023.2
20210922133145 72 343 5.0 11.0 0.00 0.01 0.00 76 1023.3
20210922132552 71 350 4.0 12.0 0.00 0.01 0.00 77 1023.4
20210922132113 71 338 4.0 12.0 0.00 0.01 0.00 77 1023.4
20210922131556 71 345 4.0 11.0 0.00 0.01 0.00 77 1023.3
20210922131103 71 10 6.0 11.0 0.00 0.01 0.00 77 1023.2
20210922130549 71 5 4.0 11.0 0.00 0.01 0.00 79 1023.2
20210922130131 70 26 4.0 10.0 0.00 0.01 0.00 81 1023.0
20210922125629 70 340 2.0 8.0 0.00 0.01 0.00 82 1023.0
20210922125054 70 325 2.0 8.0 0.00 0.01 0.00 82 1022.9
20210922124618 70 9 3.0 9.0 0.00 0.01 0.00 82 1022.8
20210922124044 70 355 3.0 10.0 0.00 0.01 0.00 83 1022.7
20210922123543 70 355 4.0 10.0 0.00 0.01 0.00 83 1022.7
20210922123114 70 34 3.0 8.0 0.00 0.01 0.00 85 1022.5
20210922122541 70 350 3.0 8.0 0.00 0.01 0.00 86 1022.4
20210922122043 70 329 4.0 6.0 0.00 0.01 0.00 86 1022.3
20210922121644 70 342 3.0 6.0 0.00 0.01 0.00 86 1022.3
20210922121041 70 331 3.0 7.0 0.00 0.01 0.00 86 1022.3
20210922120540 70 9 3.0 6.0 0.00 0.01 0.00 86 1022.3
20210922120108 70 355 2.0 6.0 0.00 0.01 0.00 86 1022.4
20210922115539 70 327 1.0 4.0 0.00 0.01 0.00 86 1022.5
20210922115048 70 304 2.0 4.0 0.00 0.01 0.00 86 1022.6
20210922114558 70 329 1.0 4.0 0.00 0.01 0.00 85 1022.6
20210922114036 71 339 1.0 4.0 0.00 0.01 0.00 84 1022.4
20210922113535 71 328 1.0 4.0 0.00 0.01 0.00 83 1022.2
20210922113050 71 327 2.0 5.0 0.00 0.01 0.00 83 1022.2
20210922112533 71 351 1.0 8.0 0.00 0.01 0.00 82 1022.3
20210922112034 72 12 3.0 10.0 0.00 0.01 0.00 82 1022.2
20210922111602 72 346 4.0 10.0 0.00 0.01 0.00 81 1021.9
20210922111046 72 355 3.0 8.0 0.00 0.01 0.00 81 1021.9
20210922110529 72 5 3.0 8.0 0.00 0.01 0.00 81 1021.9
20210922110049 72 355 3.0 8.0 0.00 0.01 0.00 81 1021.7
20210922105528 73 345 3.0 6.0 0.00 0.01 0.00 80 1021.7
20210922105027 73 5 2.0 9.0 0.00 0.01 0.00 79 1021.8
20210922104528 73 346 3.0 9.0 0.00 0.01 0.00 79 1021.7
20210922104023 73 13 3.0 11.0 0.00 0.01 0.00 78 1021.6
20210922103524 74 355 5.0 11.0 0.00 0.01 0.00 78 1021.5
20210922103029 74 31 5.0 10.0 0.00 0.01 0.00 77 1021.4
20210922102521 74 360 4.0 10.0 0.00 0.01 0.00 77 1021.4
20210922102026 74 5 4.0 11.0 0.00 0.01 0.00 77 1021.4
20210922101551 74 355 4.0 11.0 0.00 0.01 0.00 78 1021.2
20210922101036 74 348 6.0 11.0 0.00 0.01 0.00 79 1021.3
20210922100533 74 340 3.0 6.0 0.00 0.01 0.00 83 1021.3
20210922100029 74 350 2.0 5.0 0.00 0.01 0.00 83 1021.3
20210922095524 74 360 2.0 5.0 0.00 0.01 0.00 83 1021.3
20210922095017 74 348 2.0 5.0 0.00 0.01 0.00 82 1021.2
20210922094519 75 330 2.0 5.0 0.00 0.01 0.00 82 1021.2
20210922094014 75 350 2.0 8.0 0.00 0.01 0.00 81 1021.2
20210922093514 75 355 3.0 8.0 0.00 0.01 0.00 81 1021.2
20210922093015 75 13 2.0 8.0 0.00 0.01 0.00 80 1021.2
20210922092513 75 360 3.0 8.0 0.00 0.01 0.00 80 1021.1
20210922092015 75 336 3.0 6.0 0.00 0.01 0.00 80 1021.0
20210922091544 76 344 3.0 8.0 0.00 0.01 0.00 80 1020.9
20210922091009 76 360 3.0 8.0 0.00 0.01 0.00 80 1021.0
20210922090510 76 347 3.0 8.0 0.00 0.01 0.00 80 1020.9
20210922090007 77 347 2.0 8.0 0.00 0.01 0.00 79 1020.9
20210922085511 77 360 3.0 9.0 0.00 0.01 0.00 79 1020.9
20210922085012 77 319 3.0 11.0 0.00 0.01 0.00 79 1020.8
20210922084511 77 45 5.0 12.0 0.00 0.01 0.00 79 1020.7
20210922084005 77 347 5.0 12.0 0.00 0.01 0.00 81 1020.7
20210922083504 77 355 3.0 6.0 0.00 0.01 0.00 81 1020.8
20210922083005 77 305 2.0 9.0 0.00 0.01 0.00 80 1020.8
20210922082508 77 348 5.0 10.0 0.00 0.01 0.00 80 1020.7
20210922082010 78 21 5.0 12.0 0.00 0.01 0.00 80 1020.6
20210922081503 78 31 6.0 12.0 0.00 0.01 0.00 79 1020.5
20210922081000 78 11 3.0 13.0 0.00 0.01 0.00 80 1020.4
20210922080600 78 5 5.0 13.0 0.00 0.01 0.00 79 1020.5
20210922080158 78 342 5.0 11.0 0.00 0.01 0.00 79 1020.5
20210922075645 78 13 4.0 9.0 0.00 0.01 0.00 80 1020.6
20210922075100 78 355 4.0 9.0 0.00 0.01 0.00 80 1020.8
20210922074611 78 5 4.0 8.0 0.00 0.01 0.00 81 1020.7
20210922074058 78 350 2.0 5.0 0.00 0.01 0.00 81 1020.7
20210922073557 78 311 1.0 5.0 0.00 0.01 0.00 81 1020.7
20210922073115 79 360 2.0 9.0 0.00 0.01 0.00 80 1020.5
20210922072556 79 9 4.0 9.0 0.00 0.01 0.00 80 1020.5
20210922072055 79 5 4.0 11.0 0.00 0.01 0.00 80 1020.5
20210922071719 79 336 2.0 11.0 0.00 0.01 0.00 80 1020.5
20210922071057 79 338 4.0 7.0 0.00 0.01 0.00 81 1020.3
20210922070552 79 335 2.0 8.0 0.00 0.01 0.00 81 1020.0
20210922070207 79 329 4.0 8.0 0.00 0.01 0.00 80 1019.8
20210922065553 79 5 3.0 6.0 0.00 0.01 0.00 80 1019.9
20210922065052 79 327 2.0 8.0 0.00 0.01 0.00 80 1020.0
20210922064713 80 5 3.0 8.0 0.00 0.01 0.00 80 1019.8
20210922064049 80 343 4.0 8.0 0.00 0.01 0.00 79 1019.8
20210922063548 80 15 3.0 10.0 0.00 0.01 0.00 80 1019.6
20210922063102 80 12 4.0 10.0 0.00 0.01 0.00 79 1019.6
20210922062547 80 336 4.0 9.0 0.00 0.01 0.00 80 1019.5
20210922062058 80 350 4.0 9.0 0.00 0.01 0.00 81 1019.5
20210922061602 79 340 3.0 8.0 0.00 0.01 0.00 83 1019.5
20210922061143 80 349 3.0 6.0 0.00 0.01 0.00 84 1019.6
20210922060544 80 15 3.0 5.0 0.00 0.01 0.00 83 1019.6
20210922055542 80 336 2.0 8.0 0.00 0.01 0.00 83 1019.7
20210922055041 81 330 5.0 9.0 0.00 0.01 0.00 82 1019.7
20210922054557 81 296 2.0 10.0 0.00 0.01 0.00 82 1019.7
20210922054123 81 331 5.0 10.0 0.00 0.01 0.00 82 1019.8
20210922053537 81 294 5.0 9.0 0.00 0.01 0.00 82 1019.9
20210922053043 81 317 5.0 9.0 0.00 0.01 0.00 83 1019.8
20210922052541 81 297 4.0 9.0 0.00 0.01 0.00 82 1019.6
20210922052035 81 303 4.0 8.0 0.00 0.01 0.00 83 1019.7
20210922051557 81 306 3.0 9.0 0.00 0.01 0.00 82 1019.7
20210922051046 81 307 5.0 9.0 0.00 0.01 0.00 82 1019.7
20210922050545 82 292 4.0 10.0 0.00 0.01 0.00 82 1019.7
20210922050046 82 306 5.0 10.0 0.00 0.01 0.00 82 1019.6
20210922045530 82 298 5.0 9.0 0.00 0.01 0.01 83 1019.7
20210922045036 82 326 4.0 9.0 0.00 0.01 0.01 83 1019.6
20210922044028 82 321 4.0 10.0 0.00 0.01 0.01 83 1019.4
20210922043528 82 355 5.0 10.0 0.00 0.01 0.01 83 1019.4
20210922043049 82 314 4.0 12.0 0.00 0.01 0.01 84 1019.4
20210922042526 82 296 6.0 12.0 0.00 0.01 0.01 84 1019.3
20210922042029 82 299 5.0 11.0 0.00 0.01 0.01 85 1019.4
20210922041554 82 318 3.0 8.0 0.00 0.01 0.01 87 1019.4
20210922041026 82 317 3.0 6.0 0.00 0.01 0.01 87 1019.4
20210922040526 82 306 3.0 6.0 0.00 0.01 0.01 87 1019.5
20210922040047 82 307 3.0 6.0 0.00 0.01 0.01 87 1019.5
20210922035524 82 350 3.0 8.0 0.00 0.01 0.01 87 1019.4
20210922035025 82 335 2.0 8.0 0.00 0.01 0.01 87 1019.3
20210922034533 82 328 4.0 9.0 0.00 0.01 0.01 87 1019.4
20210922034025 82 310 4.0 9.0 0.00 0.01 0.01 88 1019.4
20210922033523 82 325 4.0 8.0 0.00 0.01 0.01 89 1019.3
20210922033038 81 306 4.0 6.0 0.00 0.01 0.01 91 1019.2
20210922032522 81 296 2.0 3.0 0.00 0.01 0.01 94 1019.1
20210922032028 81 311 0.0 2.0 0.00 0.01 0.01 93 1018.8
20210922031551 81 311 1.0 3.0 0.00 0.01 0.01 94 1019.0
20210922031025 81 311 0.0 3.0 0.00 0.01 0.01 93 1019.0
20210922030522 81 311 0.0 2.0 0.00 0.01 0.01 93 1018.8
20210922030024 81 311 0.0 2.0 0.00 0.01 0.01 93 1018.7
20210922025529 81 311 0.0 3.0 0.00 0.01 0.01 93 1018.7
20210922025018 81 311 1.0 4.0 0.00 0.01 0.01 92 1018.4
20210922024556 81 311 2.0 9.0 0.00 0.01 0.01 93 1018.5
20210922024017 81 304 4.0 9.0 0.00 0.01 0.01 93 1018.4
20210922023518 81 288 5.0 9.0 0.00 0.01 0.01 93 1018.4
20210922023032 81 290 3.0 5.0 0.00 0.01 0.01 93 1018.3
20210922022516 81 288 2.0 4.0 0.00 0.01 0.01 94 1017.9
20210922022016 81 290 2.0 4.0 0.00 0.01 0.01 94 1017.9
20210922021601 80 227 1.0 2.0 0.00 0.01 0.01 94 1017.7
20210922021016 80 177 0.0 1.0 0.00 0.01 0.01 94 1017.5
20210922020521 80 177 0.0 1.0 0.00 0.01 0.01 93 1017.3
20210922020021 80 177 0.0 1.0 0.00 0.01 0.01 92 1017.1
20210922015520 80 177 0.0 1.0 0.00 0.01 0.01 92 1017.2
20210922015015 80 177 0.0 1.0 0.00 0.01 0.01 91 1017.1
20210922014521 81 177 0.0 1.0 0.00 0.01 0.01 90 1017.2
20210922014015 81 177 0.0 1.0 0.00 0.01 0.01 90 1017.2
20210922013523 81 177 0.0 1.0 0.00 0.01 0.01 90 1017.2
20210922013015 81 177 0.0 1.0 0.00 0.01 0.01 90 1017.2
20210922012514 81 177 0.0 1.0 0.00 0.01 0.01 90 1017.3
20210922012018 81 177 0.0 2.0 0.00 0.01 0.01 89 1017.2
20210922011520 81 177 0.0 2.0 0.00 0.01 0.01 89 1017.2
20210922011014 81 177 0.0 1.0 0.00 0.01 0.01 89 1017.1
20210922010513 82 177 0.0 2.0 0.00 0.01 0.01 89 1017.1
20210922010054 82 177 0.0 2.0 0.00 0.01 0.01 88 1017.0
20210922005530 82 177 0.0 0.0 0.00 0.01 0.01 88 1016.9
20210922005020 83 177 0.0 0.0 0.00 0.01 0.01 87 1016.8
20210922004534 83 177 0.0 0.0 0.00 0.01 0.01 87 1016.9
20210922004012 83 177 0.0 0.0 0.00 0.01 0.01 86 1016.8
20210922003511 84 177 0.0 0.0 0.00 0.01 0.01 85 1016.8
20210922003026 84 177 0.0 1.0 0.00 0.01 0.01 84 1016.7
20210922002511 85 177 0.0 2.0 0.00 0.01 0.01 84 1016.6
20210922002011 85 177 0.0 3.0 0.00 0.01 0.01 83 1016.5
20210922001515 85 177 0.0 3.0 0.00 0.01 0.01 82 1016.4
20210922001011 86 171 0.0 2.0 0.00 0.01 0.01 82 1016.3
20210922000513 86 171 0.0 5.0 0.00 0.01 0.01 81 1016.3
20210922000054 87 176 0.0 5.0 0.00 0.01 0.01 81 1016.2
20210921235526 87 155 1.0 5.0 0.00 0.01 0.01 82 1016.1
20210921235030 87 175 1.0 3.0 0.00 0.01 0.01 81 1016.1
20210921234510 87 185 0.0 5.0 0.00 0.01 0.01 81 1016.0
20210921234010 88 174 1.0 5.0 0.00 0.01 0.01 82 1016.0
20210921233510 88 205 2.0 5.0 0.00 0.01 0.01 81 1015.9
20210921233013 88 172 2.0 3.0 0.00 0.01 0.01 81 1015.9
20210921232510 88 159 1.0 4.0 0.00 0.01 0.01 81 1015.8
20210921232015 88 178 1.0 5.0 0.00 0.01 0.01 81 1015.8
20210921231544 88 151 1.0 5.0 0.00 0.01 0.01 81 1015.8
20210921231011 88 178 1.0 3.0 0.00 0.01 0.01 81 1015.8
20210921230510 87 187 1.0 5.0 0.00 0.01 0.01 82 1015.8
20210921230014 87 167 1.0 5.0 0.00 0.01 0.01 81 1015.9
20210921225513 88 191 1.0 3.0 0.00 0.01 0.01 81 1016.0
20210921225009 88 215 0.0 2.0 0.00 0.01 0.01 81 1016.0
20210921224513 88 186 0.0 3.0 0.00 0.01 0.01 82 1016.0
20210921224008 88 173 0.0 3.0 0.00 0.01 0.01 83 1016.0
20210921223509 88 169 1.0 3.0 0.00 0.01 0.01 82 1016.0
20210921223012 88 161 1.0 3.0 0.00 0.01 0.01 82 1016.1
20210921222511 87 167 0.0 2.0 0.00 0.01 0.01 83 1016.0
20210921222007 87 166 0.0 2.0 0.00 0.01 0.01 83 1016.1
20210921221514 87 163 0.0 2.0 0.00 0.01 0.01 83 1016.1
20210921221007 88 175 0.0 2.0 0.00 0.01 0.01 82 1016.1
20210921220507 88 175 0.0 2.0 0.00 0.01 0.01 82 1016.2
20210921220018 88 175 1.0 2.0 0.00 0.01 0.01 80 1016.2
20210921215510 88 170 0.0 3.0 0.00 0.01 0.01 80 1016.2
20210921215007 88 170 1.0 5.0 0.00 0.01 0.01 79 1016.2
20210921214510 89 190 1.0 6.0 0.00 0.01 0.01 78 1016.2
20210921214010 89 202 1.0 5.0 0.00 0.01 0.01 77 1016.2
20210921213506 89 166 2.0 5.0 0.00 0.01 0.01 75 1016.0
20210921213006 90 150 1.0 7.0 0.00 0.01 0.01 75 1016.0
20210921212506 91 169 3.0 7.0 0.00 0.01 0.01 73 1016.1
20210921212009 92 139 2.0 5.0 0.00 0.01 0.01 71 1016.2
20210921211506 93 143 1.0 4.0 0.00 0.01 0.01 69 1016.3
20210921211009 94 196 1.0 6.0 0.00 0.01 0.01 69 1016.3
20210921210506 93 163 1.0 6.0 0.00 0.01 0.01 71 1016.3
20210921210007 94 126 1.0 5.0 0.00 0.01 0.01 68 1016.2
20210921205505 94 153 2.0 5.0 0.00 0.01 0.01 70 1016.4
20210921205005 94 234 0.0 5.0 0.00 0.01 0.01 72 1016.4
20210921204508 93 225 2.0 7.0 0.00 0.01 0.01 70 1016.2
20210921204003 93 165 2.0 7.0 0.00 0.01 0.01 71 1016.2
20210921203504 93 163 1.0 7.0 0.00 0.01 0.01 72 1016.3
20210921203005 93 142 3.0 7.0 0.00 0.01 0.01 71 1016.5
20210921202506 93 144 2.0 5.0 0.00 0.01 0.01 73 1016.6
20210921202002 93 165 2.0 5.0 0.00 0.01 0.01 73 1016.7
20210921201503 93 115 1.0 7.0 0.00 0.01 0.01 71 1016.8
20210921201002 93 141 3.0 7.0 0.00 0.01 0.01 73 1016.8
20210921200502 92 201 1.0 6.0 0.00 0.01 0.01 77 1016.9
20210921200002 91 159 2.0 7.0 0.00 0.01 0.01 75 1017.1
20210921195502 90 165 2.0 7.0 0.00 0.01 0.01 77 1017.2
20210921195005 89 151 1.0 5.0 0.00 0.01 0.01 79 1017.3
20210921194637 89 137 2.0 5.0 0.00 0.01 0.01 81 1017.4
20210921194059 88 132 2.0 6.0 0.00 0.01 0.01 82 1017.4
20210921193604 88 176 3.0 6.0 0.00 0.01 0.01 81 1017.5
20210921193145 88 196 2.0 7.0 0.00 0.01 0.01 80 1017.6
20210921192623 89 188 2.0 7.0 0.00 0.01 0.01 78 1017.6
20210921192057 89 148 2.0 5.0 0.00 0.01 0.01 76 1017.6
20210921191748 90 186 0.0 2.0 0.00 0.01 0.01 74 1017.4
20210921191056 91 187 0.0 3.0 0.00 0.01 0.01 72 1017.5
20210921190555 91 187 0.0 3.0 0.00 0.01 0.01 70 1017.4
20210921190131 92 142 1.0 3.0 0.00 0.01 0.01 67 1017.5
20210921185616 93 254 0.0 4.0 0.00 0.01 0.01 68 1017.6
20210921185102 94 255 1.0 7.0 0.00 0.01 0.01 65 1017.6
20210921184645 94 254 2.0 7.0 0.00 0.01 0.01 67 1017.6
20210921184053 94 91 1.0 3.0 0.00 0.01 0.01 71 1017.6
20210921183548 94 234 1.0 3.0 0.00 0.01 0.01 69 1017.6
20210921183047 93 233 1.0 4.0 0.00 0.01 0.01 73 1017.7
20210921182547 93 332 2.0 4.0 0.00 0.01 0.01 69 1017.9
20210921182049 93 240 1.0 4.0 0.00 0.01 0.01 73 1017.9
20210921181557 92 284 2.0 6.0 0.00 0.01 0.01 72 1018.0
20210921181042 91 265 3.0 8.0 0.00 0.01 0.01 71 1018.1
20210921180542 91 262 4.0 9.0 0.00 0.01 0.01 73 1018.1
20210921180152 91 263 6.0 9.0 0.00 0.01 0.01 75 1018.1
20210921175542 92 267 4.0 7.0 0.00 0.01 0.01 74 1018.2
20210921175055 93 242 0.0 3.0 0.00 0.01 0.01 71 1018.2
20210921174545 92 242 0.0 4.0 0.00 0.01 0.01 70 1018.2
20210921174040 92 180 1.0 5.0 0.00 0.01 0.01 72 1018.2
20210921173536 91 242 2.0 7.0 0.00 0.01 0.01 73 1018.4
20210921173050 90 276 2.0 9.0 0.00 0.01 0.01 72 1018.2
20210921172554 90 262 4.0 9.0 0.00 0.01 0.01 74 1018.3
20210921172035 90 265 3.0 8.0 0.00 0.01 0.01 74 1018.3
20210921171620 90 264 4.0 8.0 0.00 0.01 0.01 78 1018.3
20210921171035 90 262 6.0 9.0 0.00 0.01 0.01 77 1018.4
20210921170535 90 267 5.0 9.0 0.00 0.01 0.01 78 1018.4
20210921170051 91 263 5.0 8.0 0.00 0.01 0.01 75 1018.5
20210921165540 91 252 1.0 3.0 0.00 0.01 0.01 77 1018.5
20210921165030 90 213 0.0 3.0 0.00 0.01 0.01 78 1018.5
20210921164550 88 209 1.0 7.0 0.00 0.01 0.01 79 1018.6
20210921164035 88 112 2.0 7.0 0.00 0.01 0.01 78 1018.5
20210921163536 88 163 0.0 4.0 0.00 0.01 0.01 82 1018.6
20210921163042 88 175 1.0 6.0 0.00 0.01 0.01 79 1018.5
20210921162528 88 186 1.0 6.0 0.00 0.01 0.01 79 1018.4
20210921162037 88 156 1.0 5.0 0.00 0.01 0.01 80 1018.4